Time;durP1;ratioP1;P1;durP2;ratioP2;P2;SDS_P1;SDS_P2;PMS_P1;PMS_P2;Temp;Humidity;BMP_temperature;BMP_pressure;BME280_temperature;BME280_humidity;BME280_pressure;Samples;Min_cycle;Max_cycle;Signal;HPM_P1;HPM_P2
2022/08/04 00:00:04;;;;;;;2.50;2.30;;;;;24.90;98660.00;;;;16485901;28;20224;-73
2022/08/04 00:08:14;;;;;;;3.00;2.30;;;;;25.00;98662.00;;;;16507296;28;20233;-73
2022/08/04 00:16:17;;;;;;;3.23;2.93;;;;;25.10;98656.00;;;;16495748;28;20304;-74
2022/08/04 00:24:22;;;;;;;4.00;2.40;;;;;25.20;98660.00;;;;16498816;28;20193;-76
2022/08/04 00:32:26;;;;;;;2.70;2.50;;;;;24.70;98658.00;;;;16489716;28;20232;-74
2022/08/04 00:40:36;;;;;;;3.10;2.77;;;;;25.30;98660.00;;;;16503227;28;20220;-71
2022/08/04 00:49:01;;;;;;;3.47;2.87;;;;;24.70;98659.00;;;;16493643;28;20243;-71
2022/08/04 00:57:20;;;;;;;2.57;2.37;;;;;24.60;98673.00;;;;16481812;28;20325;-71
2022/08/04 01:05:30;;;;;;;3.60;2.80;;;;;25.70;98671.00;;;;16505619;28;20291;-71
2022/08/04 01:13:52;;;;;;;3.70;3.10;;;;;24.40;98668.00;;;;16491329;28;20224;-71
2022/08/04 01:22:13;;;;;;;3.53;3.00;;;;;24.00;98663.00;;;;16495581;28;20597;-71
2022/08/04 01:30:17;;;;;;;5.97;3.50;;;;;24.50;98676.00;;;;16484153;28;20230;-74
2022/08/04 01:38:25;;;;;;;2.60;2.40;;;;;24.60;98660.00;;;;16493714;28;20271;-74
2022/08/04 01:46:33;;;;;;;3.67;3.37;;;;;24.40;98660.00;;;;16481297;28;20221;-72
2022/08/04 01:54:40;;;;;;;3.57;2.90;;;;;24.20;98652.00;;;;16489877;28;21138;-71
2022/08/04 02:02:45;;;;;;;3.23;2.93;;;;;23.90;98657.00;;;;16485913;28;20685;-71
2022/08/04 02:10:57;;;;;;;5.80;2.83;;;;;24.30;98653.00;;;;16487602;28;20667;-73
2022/08/04 02:19:05;;;;;;;3.10;2.90;;;;;23.80;98650.00;;;;16463121;28;20652;-74
2022/08/04 02:27:08;;;;;;;3.57;2.60;;;;;23.40;98648.00;;;;16477945;28;20216;-75
2022/08/04 02:35:15;;;;;;;4.87;3.50;;;;;24.30;98635.00;;;;16491163;28;20211;-74
2022/08/04 02:43:20;;;;;;;5.23;2.80;;;;;23.50;98632.00;;;;16499092;28;20231;-74
2022/08/04 02:51:27;;;;;;;3.23;2.93;;;;;23.30;98626.00;;;;16483143;28;20227;-76
2022/08/04 02:59:32;;;;;;;2.87;2.67;;;;;23.80;98638.00;;;;16485595;28;20220;-75
2022/08/04 03:07:59;;;;;;;2.87;2.67;;;;;23.20;98632.00;;;;16492284;28;20697;-74
2022/08/04 03:16:17;;;;;;;3.43;3.13;;;;;23.20;98632.00;;;;16481530;28;20228;-74
2022/08/04 03:24:49;;;;;;;3.60;3.10;;;;;22.70;98632.00;;;;16478664;28;20299;-74
2022/08/04 03:33:22;;;;;;;3.30;3.00;;;;;22.70;98639.00;;;;16475774;28;20295;-75
2022/08/04 03:41:54;;;;;;;3.27;2.97;;;;;23.30;98645.00;;;;16490664;28;20228;-74
2022/08/04 03:50:19;;;;;;;2.80;2.60;;;;;23.20;98642.00;;;;16455382;28;20237;-74
2022/08/04 03:58:43;;;;;;;3.60;3.17;;;;;23.30;98641.00;;;;16490794;28;20224;-74
2022/08/04 04:07:13;;;;;;;3.53;2.97;;;;;22.90;98636.00;;;;16504928;28;20207;-74
2022/08/04 04:15:28;;;;;;;3.10;2.83;;;;;22.60;98642.00;;;;16496025;28;20377;-75
2022/08/04 04:23:55;;;;;;;3.20;3.00;;;;;23.60;98643.00;;;;16499094;28;20765;-74
2022/08/04 04:32:05;;;;;;;4.97;3.40;;;;;22.90;98647.00;;;;16500532;28;20239;-73
2022/08/04 04:40:19;;;;;;;4.03;3.27;;;;;23.50;98640.00;;;;16497259;28;20759;-74
2022/08/04 04:48:30;;;;;;;3.10;2.80;;;;;24.10;98651.00;;;;16489497;28;20224;-77
2022/08/04 04:56:40;;;;;;;3.67;3.30;;;;;24.30;98651.00;;;;16492438;28;20710;-76
2022/08/04 05:05:07;;;;;;;4.03;2.90;;;;;25.40;98656.00;;;;16487451;28;20579;-74
2022/08/04 05:13:24;;;;;;;4.80;3.70;;;;;25.20;98657.00;;;;16492557;28;20315;-76
2022/08/04 05:21:37;;;;;;;4.77;4.20;;;;;24.10;98663.00;;;;16473873;28;20831;-74
2022/08/04 05:29:46;;;;;;;5.70;5.10;;;;;23.80;98656.00;;;;16566972;28;20223;-74
2022/08/04 05:37:51;;;;;;;4.33;4.03;;;;;23.80;98662.00;;;;16565114;28;20231;-74
2022/08/04 05:45:56;;;;;;;7.10;4.83;;;;;23.90;98661.00;;;;16577307;28;20214;-75
2022/08/04 05:53:59;;;;;;;5.00;4.47;;;;;24.20;98664.00;;;;16575616;28;20783;-75
2022/08/04 06:02:04;;;;;;;6.13;3.97;;;;;24.80;98668.00;;;;16565923;28;20270;-75
2022/08/04 06:10:07;;;;;;;6.00;4.07;;;;;24.90;98656.00;;;;16559974;28;20281;-75
2022/08/04 06:18:12;;;;;;;4.93;4.33;;;;;25.00;98655.00;;;;16565186;28;20720;-75
2022/08/04 06:26:18;;;;;;;4.87;4.23;;;;;25.30;98650.00;;;;16569586;28;20222;-74
2022/08/04 06:34:22;;;;;;;6.10;4.33;;;;;25.50;98656.00;;;;16561001;28;20234;-74
2022/08/04 06:42:26;;;;;;;4.90;4.50;;;;;25.90;98661.00;;;;16572314;28;20294;-72
2022/08/04 06:50:30;;;;;;;6.23;4.40;;;;;26.40;98647.00;;;;16569681;28;20224;-72
2022/08/04 06:58:33;;;;;;;4.37;3.73;;;;;26.70;98649.00;;;;16572738;28;20231;-72
2022/08/04 07:06:37;;;;;;;5.90;4.50;;;;;26.90;98660.00;;;;16565383;28;20222;-72
2022/08/04 07:14:41;;;;;;;9.80;6.00;;;;;27.30;98658.00;;;;16568244;28;20586;-73
2022/08/04 07:22:45;;;;;;;5.93;4.40;;;;;27.70;98654.00;;;;16552925;28;20219;-72
2022/08/04 07:30:49;;;;;;;5.53;3.83;;;;;28.10;98646.00;;;;16575648;28;20373;-73
2022/08/04 07:38:52;;;;;;;4.60;4.20;;;;;28.50;98638.00;;;;16589308;28;20692;-73
2022/08/04 07:46:55;;;;;;;6.07;3.97;;;;;28.70;98643.00;;;;16583814;28;20313;-72
2022/08/04 07:54:59;;;;;;;11.53;10.60;;;;;29.00;98641.00;;;;16575960;28;20251;-72
2022/08/04 08:03:02;;;;;;;5.37;3.87;;;;;29.30;98637.00;;;;16582110;28;20591;-72
2022/08/04 08:11:06;;;;;;;5.80;4.20;;;;;29.70;98631.00;;;;16569362;28;20353;-72
2022/08/04 08:19:09;;;;;;;4.20;3.80;;;;;30.00;98630.00;;;;16575493;28;20227;-73
2022/08/04 08:27:12;;;;;;;4.17;3.77;;;;;30.60;98622.00;;;;16582205;28;20223;-73
2022/08/04 08:35:15;;;;;;;4.63;3.73;;;;;31.00;98624.00;;;;16581809;28;20230;-73
2022/08/04 08:43:35;;;;;;;6.70;4.23;;;;;31.80;98627.00;;;;16580061;28;20318;-73
2022/08/04 08:51:50;;;;;;;5.43;4.20;;;;;31.50;98627.00;;;;16582548;28;20234;-72
2022/08/04 09:00:04;;;;;;;4.67;3.20;;;;;32.00;98621.00;;;;16574427;28;20219;-73
2022/08/04 09:08:25;;;;;;;8.40;5.20;;;;;32.30;98624.00;;;;16568467;28;20897;-73
2022/08/04 09:16:37;;;;;;;3.40;3.10;;;;;33.00;98618.00;;;;16571649;28;20577;-73
2022/08/04 09:24:47;;;;;;;5.57;4.00;;;;;33.10;98621.00;;;;16575872;28;20271;-73
2022/08/04 09:33:00;;;;;;;3.20;2.87;;;;;33.50;98613.00;;;;16566654;28;20236;-73
2022/08/04 09:41:08;;;;;;;3.77;3.37;;;;;33.80;98612.00;;;;16574390;28;20761;-73
2022/08/04 09:49:16;;;;;;;3.47;3.17;;;;;34.20;98613.00;;;;16571388;28;20223;-73
2022/08/04 09:57:28;;;;;;;2.97;2.67;;;;;33.80;98608.00;;;;16538160;28;20238;-73
2022/08/04 10:05:45;;;;;;;3.40;3.10;;;;;34.90;98601.00;;;;16567539;28;20223;-72
2022/08/04 10:13:52;;;;;;;8.23;3.70;;;;;35.80;98592.00;;;;16575897;28;20315;-73
2022/08/04 10:22:06;;;;;;;3.47;2.77;;;;;36.80;98578.00;;;;16576005;28;20234;-73
2022/08/04 10:30:11;;;;;;;3.57;3.20;;;;;36.50;98567.00;;;;16571399;28;20211;-73
2022/08/04 10:38:21;;;;;;;3.87;3.57;;;;;37.80;98567.00;;;;16574425;28;20231;-73
2022/08/04 10:46:27;;;;;;;3.90;3.60;;;;;37.20;98574.00;;;;16576128;28;20219;-73
2022/08/04 10:54:43;;;;;;;2.77;2.57;;;;;38.00;98560.00;;;;16570235;28;20228;-73
2022/08/04 11:02:51;;;;;;;2.67;2.47;;;;;38.40;98559.00;;;;16576708;28;20223;-74
2022/08/04 11:11:01;;;;;;;3.23;2.63;;;;;37.90;98552.00;;;;16588924;28;20234;-73
2022/08/04 11:19:17;;;;;;;2.40;1.97;;;;;39.20;98553.00;;;;16583836;28;20223;-73
2022/08/04 11:27:26;;;;;;;3.50;2.23;;;;;39.00;98547.00;;;;16581840;28;20219;-74
2022/08/04 11:35:31;;;;;;;2.07;1.97;;;;;39.10;98554.00;;;;16587152;28;20227;-73
2022/08/04 11:43:39;;;;;;;2.60;2.23;;;;;40.60;98551.00;;;;16588761;28;20200;-74
2022/08/04 11:51:42;;;;;;;4.73;2.60;;;;;40.20;98554.00;;;;16590023;28;20231;-74
2022/08/04 11:59:47;;;;;;;2.60;2.40;;;;;39.60;98543.00;;;;16582671;28;20314;-74
2022/08/04 12:07:59;;;;;;;1.97;1.87;;;;;40.70;98540.00;;;;16577956;28;20226;-74
2022/08/04 12:16:12;;;;;;;2.47;2.20;;;;;41.20;98539.00;;;;16571593;28;20227;-74
2022/08/04 12:24:21;;;;;;;2.00;1.90;;;;;39.80;98549.00;;;;16581529;28;20303;-74
2022/08/04 12:32:28;;;;;;;2.40;1.90;;;;;41.90;98536.00;;;;16588813;28;20234;-74
2022/08/04 12:40:36;;;;;;;2.77;2.57;;;;;42.70;98523.00;;;;16583292;28;20219;-73
2022/08/04 12:48:40;;;;;;;3.00;2.20;;;;;44.20;98522.00;;;;16578987;28;20308;-74
2022/08/04 12:56:43;;;;;;;3.63;2.50;;;;;45.40;98523.00;;;;16583132;28;20239;-74
2022/08/04 13:04:47;;;;;;;2.00;1.80;;;;;41.60;98516.00;;;;16581534;28;20191;-74
2022/08/04 13:12:56;;;;;;;2.67;2.47;;;;;39.60;98513.00;;;;16579671;28;20754;-73
2022/08/04 13:21:10;;;;;;;3.30;2.87;;;;;42.90;98509.00;;;;16581789;28;20585;-74
2022/08/04 13:29:14;;;;;;;4.83;2.53;;;;;44.60;98498.00;;;;16538434;28;20720;-74
2022/08/04 13:37:20;;;;;;;3.00;2.23;;;;;46.30;98494.00;;;;16542677;28;20223;-74
2022/08/04 13:45:24;;;;;;;3.63;2.23;;;;;45.20;98491.00;;;;16538242;28;20219;-74
2022/08/04 13:53:28;;;;;;;2.93;2.40;;;;;43.60;98484.00;;;;16561968;28;20556;-74
2022/08/04 14:01:31;;;;;;;2.40;2.23;;;;;42.70;98483.00;;;;16572706;28;20230;-74
2022/08/04 14:09:35;;;;;;;2.20;2.10;;;;;44.50;98482.00;;;;16564974;28;20212;-74
2022/08/04 14:17:37;;;;;;;2.50;2.40;;;;;45.40;98475.00;;;;16557533;28;20917;-75
2022/08/04 14:25:41;;;;;;;2.63;2.43;;;;;44.80;98464.00;;;;16537568;28;20596;-75
2022/08/04 14:33:45;;;;;;;2.67;2.47;;;;;42.50;98460.00;;;;16510377;28;20369;-76
2022/08/04 14:41:50;;;;;;;2.63;2.43;;;;;45.10;98460.00;;;;16554342;28;20224;-76
2022/08/04 14:49:55;;;;;;;3.40;2.77;;;;;45.70;98460.00;;;;16555005;28;20704;-75
2022/08/04 14:57:58;;;;;;;2.40;2.20;;;;;44.90;98458.00;;;;16568105;28;20234;-75
2022/08/04 15:06:02;;;;;;;4.73;2.83;;;;;40.50;98445.00;;;;16555488;28;20216;-75
2022/08/04 15:14:07;;;;;;;3.53;2.73;;;;;39.10;98434.00;;;;16549256;28;20224;-74
2022/08/04 15:22:10;;;;;;;3.80;2.77;;;;;39.10;98437.00;;;;16550860;28;20607;-75
2022/08/04 15:30:15;;;;;;;3.50;3.17;;;;;40.40;98431.00;;;;16545349;28;20227;-74
2022/08/04 15:38:27;;;;;;;2.60;2.40;;;;;43.50;98443.00;;;;16545180;28;20732;-74
2022/08/04 15:47:08;;;;;;;2.87;2.67;;;;;41.20;98431.00;;;;16559840;28;20642;-74
2022/08/04 15:55:32;;;;;;;3.20;2.60;;;;;40.70;98426.00;;;;16562384;28;20716;-74
2022/08/04 16:03:47;;;;;;;2.83;2.63;;;;;41.00;98425.00;;;;16582024;28;20201;-75
2022/08/04 16:11:50;;;;;;;5.07;2.43;;;;;42.10;98423.00;;;;16557743;28;20695;-75
2022/08/04 16:20:08;;;;;;;2.80;2.53;;;;;45.60;98422.00;;;;16569779;28;20590;-73
2022/08/04 16:28:37;;;;;;;3.07;2.77;;;;;44.90;98416.00;;;;16553540;28;20239;-74
2022/08/04 16:37:00;;;;;;;2.73;2.53;;;;;46.20;98409.00;;;;16560026;28;20215;-74
2022/08/04 16:45:11;;;;;;;5.20;2.60;;;;;46.10;98406.00;;;;16545468;28;20311;-74
2022/08/04 16:53:17;;;;;;;2.60;2.40;;;;;46.90;98404.00;;;;16551831;28;20697;-73
2022/08/04 17:01:19;;;;;;;2.50;2.30;;;;;47.70;98398.00;;;;16557397;28;20215;-74
2022/08/04 17:09:23;;;;;;;2.60;2.40;;;;;46.80;98393.00;;;;16546700;28;20226;-74
2022/08/04 17:17:26;;;;;;;2.60;2.50;;;;;43.80;98388.00;;;;16558016;28;20794;-74
2022/08/04 17:25:30;;;;;;;3.53;3.23;;;;;38.90;98385.00;;;;16553453;28;20228;-74
2022/08/04 17:33:32;;;;;;;3.40;3.10;;;;;37.60;98374.00;;;;16559601;28;20220;-74
2022/08/04 17:41:37;;;;;;;5.57;3.73;;;;;37.80;98366.00;;;;16574674;28;20225;-72
2022/08/04 17:49:40;;;;;;;3.07;2.87;;;;;36.30;98367.00;;;;16557261;28;20223;-71
2022/08/04 17:57:44;;;;;;;6.10;3.27;;;;;35.20;98370.00;;;;16563897;28;20222;-72
2022/08/04 18:05:47;;;;;;;3.93;3.50;;;;;35.40;98372.00;;;;16557183;28;20314;-72
2022/08/04 18:13:54;;;;;;;3.87;3.57;;;;;33.30;98376.00;;;;16544788;28;20720;-72
2022/08/04 18:21:57;;;;;;;3.70;3.23;;;;;32.50;98381.00;;;;16539283;28;20223;-72
2022/08/04 18:30:01;;;;;;;3.47;3.20;;;;;31.80;98379.00;;;;16548668;28;20309;-72
2022/08/04 18:38:05;;;;;;;3.70;3.40;;;;;31.10;98390.00;;;;16535252;28;20232;-71
2022/08/04 18:46:09;;;;;;;4.80;3.90;;;;;30.90;98391.00;;;;16558771;28;20735;-72
2022/08/04 18:54:11;;;;;;;4.47;3.87;;;;;30.50;98393.00;;;;16555376;28;20408;-72
2022/08/04 19:02:15;;;;;;;4.30;3.40;;;;;30.20;98395.00;;;;16551485;28;20223;-72
2022/08/04 19:10:18;;;;;;;4.00;3.70;;;;;29.90;98401.00;;;;16548127;28;20624;-71
2022/08/04 19:18:22;;;;;;;4.77;3.17;;;;;29.60;98409.00;;;;16533413;28;20228;-71
2022/08/04 19:26:24;;;;;;;5.10;3.97;;;;;29.30;98405.00;;;;16561173;28;20219;-72
2022/08/04 19:34:28;;;;;;;4.50;4.20;;;;;29.00;98423.00;;;;16560273;28;20388;-71
2022/08/04 19:42:30;;;;;;;3.40;3.20;;;;;29.20;98435.00;;;;16525462;28;20324;-72
2022/08/04 19:50:34;;;;;;;4.83;4.10;;;;;29.60;98433.00;;;;16474320;28;20234;-76
2022/08/04 19:58:37;;;;;;;3.70;3.50;;;;;29.60;98437.00;;;;16485459;28;20226;-74
2022/08/04 20:06:41;;;;;;;7.23;3.50;;;;;29.30;98445.00;;;;16485940;28;20220;-73
2022/08/04 20:14:44;;;;;;;3.87;3.53;;;;;28.90;98450.00;;;;16488173;28;20600;-73
2022/08/04 20:22:48;;;;;;;4.33;3.93;;;;;29.00;98446.00;;;;16429977;28;20221;-73
2022/08/04 20:30:51;;;;;;;3.97;3.53;;;;;28.40;98458.00;;;;16441280;28;20247;-73
2022/08/04 20:38:55;;;;;;;4.00;3.60;;;;;28.50;98462.00;;;;16505570;28;20228;-75
2022/08/04 20:46:57;;;;;;;4.33;3.93;;;;;28.40;98470.00;;;;16517469;28;20252;-73
2022/08/04 20:55:01;;;;;;;8.20;3.70;;;;;28.60;98457.00;;;;16515282;28;20314;-74
2022/08/04 21:03:04;;;;;;;4.50;3.73;;;;;27.90;98460.00;;;;16514213;28;20287;-73
2022/08/04 21:11:08;;;;;;;4.27;3.97;;;;;27.60;98451.00;;;;16507313;28;20704;-73
2022/08/04 21:19:12;;;;;;;5.07;4.67;;;;;27.80;98446.00;;;;16497912;28;20251;-74
2022/08/04 21:27:15;;;;;;;4.83;4.43;;;;;27.80;98454.00;;;;16505183;28;20240;-74
2022/08/04 21:35:18;;;;;;;3.97;3.67;;;;;27.80;98454.00;;;;16486610;28;20231;-71
2022/08/04 21:43:22;;;;;;;4.47;4.10;;;;;27.60;98445.00;;;;16497064;28;20211;-71
2022/08/04 21:51:26;;;;;;;4.57;4.27;;;;;27.60;98440.00;;;;16507566;28;20330;-71
2022/08/04 21:59:29;;;;;;;4.80;4.40;;;;;27.60;98439.00;;;;16487882;28;20708;-71
2022/08/04 22:07:32;;;;;;;4.83;4.43;;;;;27.00;98443.00;;;;16504366;28;21067;-71
2022/08/04 22:15:36;;;;;;;5.40;4.67;;;;;27.50;98449.00;;;;16489463;28;20236;-72
2022/08/04 22:23:38;;;;;;;4.60;4.20;;;;;26.80;98446.00;;;;16502743;28;20580;-71
2022/08/04 22:31:43;;;;;;;5.17;4.67;;;;;27.00;98435.00;;;;16506920;28;20224;-71
2022/08/04 22:39:45;;;;;;;5.07;4.57;;;;;27.60;98441.00;;;;16497121;28;20225;-72
2022/08/04 22:47:49;;;;;;;5.30;4.80;;;;;27.80;98434.00;;;;16497863;28;20224;-72
2022/08/04 22:55:52;;;;;;;5.60;5.10;;;;;28.10;98434.00;;;;16503136;28;20232;-71
2022/08/04 23:03:56;;;;;;;5.50;4.93;;;;;26.40;98445.00;;;;16486842;28;20237;-71
2022/08/04 23:11:58;;;;;;;5.17;4.87;;;;;27.10;98438.00;;;;16488217;28;20251;-71
2022/08/04 23:20:02;;;;;;;6.20;5.23;;;;;27.30;98427.00;;;;16497313;28;20342;-71
2022/08/04 23:28:05;;;;;;;6.70;4.70;;;;;27.30;98433.00;;;;16499379;28;20780;-72
2022/08/04 23:36:09;;;;;;;5.80;5.30;;;;;27.20;98432.00;;;;16495186;28;20231;-72
2022/08/04 23:44:11;;;;;;;6.03;5.40;;;;;26.90;98433.00;;;;16499299;28;20208;-72
2022/08/04 23:52:17;;;;;;;6.00;5.40;;;;;27.00;98433.00;;;;16498120;28;20637;-72
